sensor_id;sensor_type;location;lat;lon;timestamp;pressure;altitude;pressure_sealevel;temperature;humidity
76594;BME280;65482;50.240;14.302;2024-02-26T00:01:40;98364.69;;;0.28;79.98
76594;BME280;65482;50.240;14.302;2024-02-26T00:04:06;98359.97;;;0.33;80.42
76594;BME280;65482;50.240;14.302;2024-02-26T00:06:31;98357.38;;;0.33;80.47
76594;BME280;65482;50.240;14.302;2024-02-26T00:08:58;98363.03;;;0.38;80.57
76594;BME280;65482;50.240;14.302;2024-02-26T00:11:23;98361.50;;;0.35;80.48
76594;BME280;65482;50.240;14.302;2024-02-26T00:13:49;98352.66;;;0.38;80.78
76594;BME280;65482;50.240;14.302;2024-02-26T00:16:15;98361.84;;;0.42;80.95
76594;BME280;65482;50.240;14.302;2024-02-26T00:18:40;98352.97;;;0.45;80.79
76594;BME280;65482;50.240;14.302;2024-02-26T00:21:06;98356.16;;;0.48;80.97
76594;BME280;65482;50.240;14.302;2024-02-26T00:23:31;98356.84;;;0.50;80.77
76594;BME280;65482;50.240;14.302;2024-02-26T00:25:57;98348.09;;;0.51;81.08
76594;BME280;65482;50.240;14.302;2024-02-26T00:28:23;98347.75;;;0.56;80.36
76594;BME280;65482;50.240;14.302;2024-02-26T00:30:50;98346.78;;;0.57;80.65
76594;BME280;65482;50.240;14.302;2024-02-26T00:33:21;98348.88;;;0.63;80.46
76594;BME280;65482;50.240;14.302;2024-02-26T00:35:47;98344.38;;;0.65;80.06
76594;BME280;65482;50.240;14.302;2024-02-26T00:38:12;98344.38;;;0.65;80.36
76594;BME280;65482;50.240;14.302;2024-02-26T00:40:38;98339.88;;;0.67;80.13
76594;BME280;65482;50.240;14.302;2024-02-26T00:43:04;98342.47;;;0.67;80.39
76594;BME280;65482;50.240;14.302;2024-02-26T00:45:30;98341.03;;;0.74;79.77
76594;BME280;65482;50.240;14.302;2024-02-26T00:47:57;98338.31;;;0.76;79.58
76594;BME280;65482;50.240;14.302;2024-02-26T00:50:23;98332.16;;;0.77;79.59
76594;BME280;65482;50.240;14.302;2024-02-26T00:52:48;98332.84;;;0.79;79.70
76594;BME280;65482;50.240;14.302;2024-02-26T00:55:14;98331.63;;;0.83;79.52
76594;BME280;65482;50.240;14.302;2024-02-26T00:57:40;98332.72;;;0.81;79.33
76594;BME280;65482;50.240;14.302;2024-02-26T01:00:06;98317.38;;;0.77;79.77
76594;BME280;65482;50.240;14.302;2024-02-26T01:02:34;98327.53;;;0.81;79.85
76594;BME280;65482;50.240;14.302;2024-02-26T01:05:00;98315.25;;;0.83;79.62
76594;BME280;65482;50.240;14.302;2024-02-26T01:07:25;98311.56;;;0.85;79.63
76594;BME280;65482;50.240;14.302;2024-02-26T01:09:51;98306.25;;;0.87;79.90
76594;BME280;65482;50.240;14.302;2024-02-26T01:12:16;98307.47;;;0.83;80.28
76594;BME280;65482;50.240;14.302;2024-02-26T01:14:42;98299.66;;;0.83;80.30
76594;BME280;65482;50.240;14.302;2024-02-26T01:17:08;98300.50;;;0.83;80.62
76594;BME280;65482;50.240;14.302;2024-02-26T01:19:33;98309.13;;;0.84;80.33
76594;BME280;65482;50.240;14.302;2024-02-26T01:21:59;98306.38;;;0.85;80.43
76594;BME280;65482;50.240;14.302;2024-02-26T01:24:24;98299.28;;;0.87;80.79
76594;BME280;65482;50.240;14.302;2024-02-26T01:26:50;98300.13;;;0.88;81.06
76594;BME280;65482;50.240;14.302;2024-02-26T01:29:15;98298.00;;;0.82;81.00
76594;BME280;65482;50.240;14.302;2024-02-26T01:31:41;98292.47;;;0.86;81.32
76594;BME280;65482;50.240;14.302;2024-02-26T01:34:07;98292.56;;;0.85;81.23
76594;BME280;65482;50.240;14.302;2024-02-26T01:36:32;98287.50;;;0.83;81.12
76594;BME280;65482;50.240;14.302;2024-02-26T01:38:58;98291.19;;;0.81;81.39
76594;BME280;65482;50.240;14.302;2024-02-26T01:41:23;98290.38;;;0.80;81.39
76594;BME280;65482;50.240;14.302;2024-02-26T01:43:49;98287.91;;;0.78;81.42
76594;BME280;65482;50.240;14.302;2024-02-26T01:46:14;98276.72;;;0.78;81.42
76594;BME280;65482;50.240;14.302;2024-02-26T01:48:42;98277.63;;;0.77;81.65
76594;BME280;65482;50.240;14.302;2024-02-26T01:51:08;98273.94;;;0.70;81.58
76594;BME280;65482;50.240;14.302;2024-02-26T01:53:35;98275.84;;;0.68;81.47
76594;BME280;65482;50.240;14.302;2024-02-26T01:56:01;98272.16;;;0.70;81.50
76594;BME280;65482;50.240;14.302;2024-02-26T01:58:27;98269.03;;;0.76;81.52
76594;BME280;65482;50.240;14.302;2024-02-26T02:00:53;98273.03;;;0.81;81.59
76594;BME280;65482;50.240;14.302;2024-02-26T02:03:18;98264.94;;;0.74;81.57
76594;BME280;65482;50.240;14.302;2024-02-26T02:05:44;98262.19;;;0.75;81.29
76594;BME280;65482;50.240;14.302;2024-02-26T02:08:10;98267.25;;;0.77;81.43
76594;BME280;65482;50.240;14.302;2024-02-26T02:10:38;98267.25;;;0.77;81.47
76594;BME280;65482;50.240;14.302;2024-02-26T02:13:03;98267.13;;;0.78;80.92
76594;BME280;65482;50.240;14.302;2024-02-26T02:15:29;98265.22;;;0.81;80.69
76594;BME280;65482;50.240;14.302;2024-02-26T02:17:55;98273.25;;;0.77;80.20
76594;BME280;65482;50.240;14.302;2024-02-26T02:20:25;98270.66;;;0.77;80.72
76594;BME280;65482;50.240;14.302;2024-02-26T02:22:52;98272.91;;;0.82;81.09
76594;BME280;65482;50.240;14.302;2024-02-26T02:25:18;98274.00;;;0.89;80.61
76594;BME280;65482;50.240;14.302;2024-02-26T02:27:44;98273.19;;;0.89;80.33
76594;BME280;65482;50.240;14.302;2024-02-26T02:30:10;98261.31;;;0.86;80.75
76594;BME280;65482;50.240;14.302;2024-02-26T02:32:40;98265.53;;;0.87;80.21
76594;BME280;65482;50.240;14.302;2024-02-26T02:35:07;98260.78;;;0.92;80.27
76594;BME280;65482;50.240;14.302;2024-02-26T02:37:32;98262.16;;;0.96;80.57
76594;BME280;65482;50.240;14.302;2024-02-26T02:39:58;98262.03;;;0.98;80.24
76594;BME280;65482;50.240;14.302;2024-02-26T02:42:24;98269.31;;;1.04;80.35
76594;BME280;65482;50.240;14.302;2024-02-26T02:44:50;98266.84;;;1.03;80.25
76594;BME280;65482;50.240;14.302;2024-02-26T02:47:15;98262.34;;;1.05;80.36
76594;BME280;65482;50.240;14.302;2024-02-26T02:49:41;98262.91;;;1.08;80.03
76594;BME280;65482;50.240;14.302;2024-02-26T02:52:06;98259.34;;;1.09;80.01
76594;BME280;65482;50.240;14.302;2024-02-26T02:54:32;98264.53;;;1.09;80.00
76594;BME280;65482;50.240;14.302;2024-02-26T02:56:58;98267.00;;;1.11;79.93
76594;BME280;65482;50.240;14.302;2024-02-26T02:59:24;98270.97;;;1.15;80.09
76594;BME280;65482;50.240;14.302;2024-02-26T03:01:50;98274.66;;;1.12;79.55
76594;BME280;65482;50.240;14.302;2024-02-26T03:04:15;98275.59;;;1.11;79.42
76594;BME280;65482;50.240;14.302;2024-02-26T03:06:41;98280.69;;;1.13;79.73
76594;BME280;65482;50.240;14.302;2024-02-26T03:09:06;98276.56;;;1.10;79.48
76594;BME280;65482;50.240;14.302;2024-02-26T03:11:32;98276.69;;;1.09;79.74
76594;BME280;65482;50.240;14.302;2024-02-26T03:13:57;98279.41;;;1.07;79.49
76594;BME280;65482;50.240;14.302;2024-02-26T03:16:23;98282.00;;;1.07;79.66
76594;BME280;65482;50.240;14.302;2024-02-26T03:18:48;98281.19;;;1.07;79.58
76594;BME280;65482;50.240;14.302;2024-02-26T03:21:14;98280.38;;;1.06;79.45
76594;BME280;65482;50.240;14.302;2024-02-26T03:23:39;98282.97;;;1.06;79.52
76594;BME280;65482;50.240;14.302;2024-02-26T03:26:05;98280.38;;;1.06;78.80
76594;BME280;65482;50.240;14.302;2024-02-26T03:28:31;98282.28;;;1.04;78.69
76594;BME280;65482;50.240;14.302;2024-02-26T03:30:59;98286.78;;;1.02;78.59
76594;BME280;65482;50.240;14.302;2024-02-26T03:33:25;98280.63;;;1.03;78.52
76594;BME280;65482;50.240;14.302;2024-02-26T03:35:50;98285.13;;;1.01;78.44
76594;BME280;65482;50.240;14.302;2024-02-26T03:38:16;98281.59;;;1.02;78.32
76594;BME280;65482;50.240;14.302;2024-02-26T03:40:41;98280.34;;;0.96;78.36
76594;BME280;65482;50.240;14.302;2024-02-26T03:43:07;98282.94;;;0.96;78.14
76594;BME280;65482;50.240;14.302;2024-02-26T03:45:33;98283.75;;;0.97;78.27
76594;BME280;65482;50.240;14.302;2024-02-26T03:47:59;98291.88;;;1.04;78.23
76594;BME280;65482;50.240;14.302;2024-02-26T03:50:25;98299.78;;;1.02;77.99
76594;BME280;65482;50.240;14.302;2024-02-26T03:52:50;98292.91;;;1.01;78.24
76594;BME280;65482;50.240;14.302;2024-02-26T03:55:16;98286.91;;;1.01;78.04
76594;BME280;65482;50.240;14.302;2024-02-26T03:57:46;98283.63;;;0.98;78.06
76594;BME280;65482;50.240;14.302;2024-02-26T04:00:12;98291.41;;;0.98;77.96
76594;BME280;65482;50.240;14.302;2024-02-26T04:02:38;98291.41;;;0.98;77.93
76594;BME280;65482;50.240;14.302;2024-02-26T04:05:04;98291.41;;;0.98;77.52
76594;BME280;65482;50.240;14.302;2024-02-26T04:07:30;98291.81;;;0.94;77.18
76594;BME280;65482;50.240;14.302;2024-02-26T04:09:55;98289.59;;;0.89;77.07
76594;BME280;65482;50.240;14.302;2024-02-26T04:12:21;98283.56;;;0.89;77.10
76594;BME280;65482;50.240;14.302;2024-02-26T04:14:47;98284.28;;;0.91;76.92
76594;BME280;65482;50.240;14.302;2024-02-26T04:17:12;98276.47;;;0.91;77.08
76594;BME280;65482;50.240;14.302;2024-02-26T04:19:38;98281.69;;;0.91;76.88
76594;BME280;65482;50.240;14.302;2024-02-26T04:22:03;98290.03;;;0.94;76.75
76594;BME280;65482;50.240;14.302;2024-02-26T04:24:29;98286.47;;;0.95;76.68
76594;BME280;65482;50.240;14.302;2024-02-26T04:26:54;98288.94;;;0.97;76.65
76594;BME280;65482;50.240;14.302;2024-02-26T04:29:20;98292.22;;;0.99;76.42
76594;BME280;65482;50.240;14.302;2024-02-26T04:31:45;98289.97;;;1.06;76.41
76594;BME280;65482;50.240;14.302;2024-02-26T04:34:12;98292.28;;;1.09;76.20
76594;BME280;65482;50.240;14.302;2024-02-26T04:36:37;98289.56;;;1.10;76.21
76594;BME280;65482;50.240;14.302;2024-02-26T04:39:03;98291.06;;;1.13;76.35
76594;BME280;65482;50.240;14.302;2024-02-26T04:41:28;98287.41;;;1.15;76.05
76594;BME280;65482;50.240;14.302;2024-02-26T04:43:54;98290.69;;;1.17;76.18
76594;BME280;65482;50.240;14.302;2024-02-26T04:46:19;98281.00;;;1.19;76.41
76594;BME280;65482;50.240;14.302;2024-02-26T04:48:47;98282.63;;;1.21;76.11
76594;BME280;65482;50.240;14.302;2024-02-26T04:51:13;98292.06;;;1.22;76.44
76594;BME280;65482;50.240;14.302;2024-02-26T04:53:38;98283.06;;;1.26;76.45
76594;BME280;65482;50.240;14.302;2024-02-26T04:56:04;98284.69;;;1.27;76.63
76594;BME280;65482;50.240;14.302;2024-02-26T04:58:30;98281.84;;;1.30;76.37
76594;BME280;65482;50.240;14.302;2024-02-26T05:00:55;98281.72;;;1.31;76.60
76594;BME280;65482;50.240;14.302;2024-02-26T05:03:21;98278.97;;;1.33;76.39
76594;BME280;65482;50.240;14.302;2024-02-26T05:05:47;98284.84;;;1.35;76.36
76594;BME280;65482;50.240;14.302;2024-02-26T05:08:12;98287.19;;;1.38;76.40
76594;BME280;65482;50.240;14.302;2024-02-26T05:10:38;98286.09;;;1.41;76.43
76594;BME280;65482;50.240;14.302;2024-02-26T05:13:06;98291.19;;;1.42;76.87
76594;BME280;65482;50.240;14.302;2024-02-26T05:15:32;98294.06;;;1.49;76.56
76594;BME280;65482;50.240;14.302;2024-02-26T05:17:58;98293.13;;;1.50;76.97
76594;BME280;65482;50.240;14.302;2024-02-26T05:20:24;98300.34;;;1.46;77.09
76594;BME280;65482;50.240;14.302;2024-02-26T05:22:50;98306.47;;;1.45;77.48
76594;BME280;65482;50.240;14.302;2024-02-26T05:25:16;98300.22;;;1.48;77.63
76594;BME280;65482;50.240;14.302;2024-02-26T05:27:45;98297.34;;;1.51;77.92
76594;BME280;65482;50.240;14.302;2024-02-26T05:30:11;98307.38;;;1.55;78.24
76594;BME280;65482;50.240;14.302;2024-02-26T05:32:37;98309.69;;;1.58;78.50
76594;BME280;65482;50.240;14.302;2024-02-26T05:35:03;98307.91;;;1.59;78.23
76594;BME280;65482;50.240;14.302;2024-02-26T05:37:30;98306.66;;;1.63;78.32
76594;BME280;65482;50.240;14.302;2024-02-26T05:39:55;98311.88;;;1.63;78.05
76594;BME280;65482;50.240;14.302;2024-02-26T05:42:21;98317.91;;;1.64;77.91
76594;BME280;65482;50.240;14.302;2024-02-26T05:44:47;98317.50;;;1.68;78.08
76594;BME280;65482;50.240;14.302;2024-02-26T05:47:12;98313.00;;;1.70;77.82
76594;BME280;65482;50.240;14.302;2024-02-26T05:49:39;98322.16;;;1.65;78.08
76594;BME280;65482;50.240;14.302;2024-02-26T05:52:05;98327.09;;;1.68;77.53
76594;BME280;65482;50.240;14.302;2024-02-26T05:54:30;98320.22;;;1.67;77.87
76594;BME280;65482;50.240;14.302;2024-02-26T05:56:57;98324.22;;;1.71;77.78
76594;BME280;65482;50.240;14.302;2024-02-26T05:59:23;98325.59;;;1.75;77.48
76594;BME280;65482;50.240;14.302;2024-02-26T06:01:49;98329.19;;;1.84;77.45
76594;BME280;65482;50.240;14.302;2024-02-26T06:04:15;98337.53;;;1.87;76.86
76594;BME280;65482;50.240;14.302;2024-02-26T06:06:44;98341.91;;;1.87;77.50
76594;BME280;65482;50.240;14.302;2024-02-26T06:09:10;98340.66;;;1.91;76.79
76594;BME280;65482;50.240;14.302;2024-02-26T06:11:37;98340.53;;;1.92;76.85
76594;BME280;65482;50.240;14.302;2024-02-26T06:14:03;98341.66;;;1.99;76.89
76594;BME280;65482;50.240;14.302;2024-02-26T06:16:29;98341.38;;;2.03;76.64
76594;BME280;65482;50.240;14.302;2024-02-26T06:18:55;98337.84;;;2.13;76.79
76594;BME280;65482;50.240;14.302;2024-02-26T06:21:22;98335.63;;;2.09;75.65
76594;BME280;65482;50.240;14.302;2024-02-26T06:23:47;98335.78;;;2.07;76.04
76594;BME280;65482;50.240;14.302;2024-02-26T06:26:13;98330.97;;;2.12;76.13
76594;BME280;65482;50.240;14.302;2024-02-26T06:28:38;98338.78;;;2.12;76.01
76594;BME280;65482;50.240;14.302;2024-02-26T06:31:06;98343.19;;;2.12;75.91
76594;BME280;65482;50.240;14.302;2024-02-26T06:33:32;98349.88;;;2.14;76.45
76594;BME280;65482;50.240;14.302;2024-02-26T06:35:58;98339.78;;;2.21;76.31
76594;BME280;65482;50.240;14.302;2024-02-26T06:38:23;98350.72;;;2.25;76.36
76594;BME280;65482;50.240;14.302;2024-02-26T06:40:49;98346.34;;;2.25;76.26
76594;BME280;65482;50.240;14.302;2024-02-26T06:43:15;98353.47;;;2.33;75.81
76594;BME280;65482;50.240;14.302;2024-02-26T06:45:40;98359.88;;;2.38;75.54
76594;BME280;65482;50.240;14.302;2024-02-26T06:48:06;98360.06;;;2.47;76.04
76594;BME280;65482;50.240;14.302;2024-02-26T06:50:32;98361.94;;;2.54;75.55
76594;BME280;65482;50.240;14.302;2024-02-26T06:52:57;98367.16;;;2.54;75.52
76594;BME280;65482;50.240;14.302;2024-02-26T06:55:23;98355.25;;;2.62;75.40
76594;BME280;65482;50.240;14.302;2024-02-26T06:57:49;98362.22;;;2.71;75.42
76594;BME280;65482;50.240;14.302;2024-02-26T07:00:15;98363.44;;;2.76;75.56
76594;BME280;65482;50.240;14.302;2024-02-26T07:02:42;98368.50;;;2.88;75.18
76594;BME280;65482;50.240;14.302;2024-02-26T07:05:09;98363.16;;;2.99;74.92
76594;BME280;65482;50.240;14.302;2024-02-26T07:07:34;98360.41;;;3.01;74.19
76594;BME280;65482;50.240;14.302;2024-02-26T07:10:00;98362.72;;;3.04;73.69
76594;BME280;65482;50.240;14.302;2024-02-26T07:12:29;98373.13;;;3.04;73.86
76594;BME280;65482;50.240;14.302;2024-02-26T07:14:55;98360.34;;;3.10;73.99
76594;BME280;65482;50.240;14.302;2024-02-26T07:17:20;98362.25;;;3.18;74.12
76594;BME280;65482;50.240;14.302;2024-02-26T07:19:46;98361.19;;;3.21;74.10
76594;BME280;65482;50.240;14.302;2024-02-26T07:22:12;98366.91;;;3.24;73.77
76594;BME280;65482;50.240;14.302;2024-02-26T07:24:38;98365.13;;;3.34;73.65
76594;BME280;65482;50.240;14.302;2024-02-26T07:27:03;98364.09;;;3.45;73.55
76594;BME280;65482;50.240;14.302;2024-02-26T07:29:29;98361.06;;;3.50;73.90
76594;BME280;65482;50.240;14.302;2024-02-26T07:31:54;98360.63;;;3.54;73.17
76594;BME280;65482;50.240;14.302;2024-02-26T07:34:20;98358.28;;;3.61;73.15
76594;BME280;65482;50.240;14.302;2024-02-26T07:36:46;98363.72;;;3.68;73.35
76594;BME280;65482;50.240;14.302;2024-02-26T07:39:12;98364.34;;;3.79;72.86
76594;BME280;65482;50.240;14.302;2024-02-26T07:41:37;98366.78;;;3.91;72.81
76594;BME280;65482;50.240;14.302;2024-02-26T07:44:04;98372.38;;;3.96;72.62
76594;BME280;65482;50.240;14.302;2024-02-26T07:46:30;98371.63;;;4.04;72.83
76594;BME280;65482;50.240;14.302;2024-02-26T07:48:56;98365.41;;;4.14;72.31
76594;BME280;65482;50.240;14.302;2024-02-26T07:51:22;98368.22;;;4.21;72.05
76594;BME280;65482;50.240;14.302;2024-02-26T07:53:48;98375.03;;;4.32;70.99
76594;BME280;65482;50.240;14.302;2024-02-26T07:56:13;98377.78;;;4.30;71.62
76594;BME280;65482;50.240;14.302;2024-02-26T07:58:39;98371.38;;;4.43;71.51
76594;BME280;65482;50.240;14.302;2024-02-26T08:01:04;98375.41;;;4.55;71.22
76594;BME280;65482;50.240;14.302;2024-02-26T08:03:30;98373.59;;;4.55;71.34
76594;BME280;65482;50.240;14.302;2024-02-26T08:05:55;98383.09;;;4.56;70.71
76594;BME280;65482;50.240;14.302;2024-02-26T08:08:21;98388.16;;;4.40;71.79
76594;BME280;65482;50.240;14.302;2024-02-26T08:10:47;98382.25;;;4.20;72.35
76594;BME280;65482;50.240;14.302;2024-02-26T08:13:12;98382.56;;;4.35;72.06
76594;BME280;65482;50.240;14.302;2024-02-26T08:15:38;98379.59;;;4.30;72.39
76594;BME280;65482;50.240;14.302;2024-02-26T08:18:04;98385.75;;;4.29;72.51
76594;BME280;65482;50.240;14.302;2024-02-26T08:20:30;98381.09;;;4.05;72.62
76594;BME280;65482;50.240;14.302;2024-02-26T08:22:57;98391.31;;;3.98;73.34
76594;BME280;65482;50.240;14.302;2024-02-26T08:25:23;98397.97;;;4.10;73.00
76594;BME280;65482;50.240;14.302;2024-02-26T08:27:50;98403.28;;;3.91;73.82
76594;BME280;65482;50.240;14.302;2024-02-26T08:30:16;98404.56;;;3.87;73.91
76594;BME280;65482;50.240;14.302;2024-02-26T08:32:47;98397.81;;;3.56;74.29
76594;BME280;65482;50.240;14.302;2024-02-26T08:35:13;98404.34;;;3.70;74.25
76594;BME280;65482;50.240;14.302;2024-02-26T08:37:39;98411.63;;;3.67;74.39
76594;BME280;65482;50.240;14.302;2024-02-26T08:40:05;98404.41;;;3.61;74.48
76594;BME280;65482;50.240;14.302;2024-02-26T08:42:32;98400.31;;;3.48;74.55
76594;BME280;65482;50.240;14.302;2024-02-26T08:44:57;98411.47;;;3.41;75.24
76594;BME280;65482;50.240;14.302;2024-02-26T08:47:25;98404.56;;;3.49;74.62
76594;BME280;65482;50.240;14.302;2024-02-26T08:49:51;98417.06;;;3.46;75.07
76594;BME280;65482;50.240;14.302;2024-02-26T08:52:17;98411.94;;;3.54;74.83
76594;BME280;65482;50.240;14.302;2024-02-26T08:54:42;98411.38;;;3.60;73.98
76594;BME280;65482;50.240;14.302;2024-02-26T08:57:08;98402.03;;;3.67;73.46
76594;BME280;65482;50.240;14.302;2024-02-26T08:59:33;98417.88;;;3.84;73.11
76594;BME280;65482;50.240;14.302;2024-02-26T09:01:59;98411.97;;;4.09;72.33
76594;BME280;65482;50.240;14.302;2024-02-26T09:04:24;98405.06;;;4.18;72.11
76594;BME280;65482;50.240;14.302;2024-02-26T09:06:52;98404.84;;;4.29;72.48
76594;BME280;65482;50.240;14.302;2024-02-26T09:09:17;98411.19;;;4.27;71.22
76594;BME280;65482;50.240;14.302;2024-02-26T09:11:44;98419.84;;;4.45;71.41
76594;BME280;65482;50.240;14.302;2024-02-26T09:14:09;98415.69;;;4.52;71.01
76594;BME280;65482;50.240;14.302;2024-02-26T09:16:35;98418.97;;;4.54;70.61
76594;BME280;65482;50.240;14.302;2024-02-26T09:19:01;98422.03;;;4.50;70.62
76594;BME280;65482;50.240;14.302;2024-02-26T09:21:28;98412.19;;;4.62;71.08
76594;BME280;65482;50.240;14.302;2024-02-26T09:23:54;98414.81;;;4.62;71.04
76594;BME280;65482;50.240;14.302;2024-02-26T09:26:19;98415.03;;;4.68;70.92
76594;BME280;65482;50.240;14.302;2024-02-26T09:28:45;98420.69;;;4.82;70.32
76594;BME280;65482;50.240;14.302;2024-02-26T09:31:11;98421.72;;;4.89;70.60
76594;BME280;65482;50.240;14.302;2024-02-26T09:33:36;98421.78;;;4.97;71.21
76594;BME280;65482;50.240;14.302;2024-02-26T09:36:04;98421.41;;;5.10;70.25
76594;BME280;65482;50.240;14.302;2024-02-26T09:38:29;98425.22;;;5.15;69.76
76594;BME280;65482;50.240;14.302;2024-02-26T09:40:57;98418.75;;;5.28;69.92
76594;BME280;65482;50.240;14.302;2024-02-26T09:43:23;98424.50;;;5.31;68.74
76594;BME280;65482;50.240;14.302;2024-02-26T09:45:53;98426.75;;;5.26;69.12
76594;BME280;65482;50.240;14.302;2024-02-26T09:48:19;98431.97;;;5.26;69.04
76594;BME280;65482;50.240;14.302;2024-02-26T09:50:46;98434.16;;;5.39;68.84
76594;BME280;65482;50.240;14.302;2024-02-26T09:53:12;98427.56;;;5.53;68.82
76594;BME280;65482;50.240;14.302;2024-02-26T09:55:40;98431.38;;;5.67;68.51
76594;BME280;65482;50.240;14.302;2024-02-26T09:58:06;98426.25;;;5.83;67.43
76594;BME280;65482;50.240;14.302;2024-02-26T10:00:37;98428.16;;;5.99;66.97
76594;BME280;65482;50.240;14.302;2024-02-26T10:03:05;98420.66;;;6.12;66.45
76594;BME280;65482;50.240;14.302;2024-02-26T10:05:33;98420.38;;;6.24;66.46
76594;BME280;65482;50.240;14.302;2024-02-26T10:08:01;98418.28;;;6.35;66.06
76594;BME280;65482;50.240;14.302;2024-02-26T10:10:29;98426.84;;;6.62;65.66
76594;BME280;65482;50.240;14.302;2024-02-26T10:12:54;98425.06;;;6.71;65.16
76594;BME280;65482;50.240;14.302;2024-02-26T10:15:20;98420.94;;;6.68;65.21
76594;BME280;65482;50.240;14.302;2024-02-26T10:17:45;98431.47;;;6.85;64.94
76594;BME280;65482;50.240;14.302;2024-02-26T10:20:16;98427.22;;;7.08;64.01
76594;BME280;65482;50.240;14.302;2024-02-26T10:22:45;98424.59;;;7.08;64.04
76594;BME280;65482;50.240;14.302;2024-02-26T10:25:10;98420.63;;;7.21;63.62
76594;BME280;65482;50.240;14.302;2024-02-26T10:27:36;98423.09;;;7.22;63.09
76594;BME280;65482;50.240;14.302;2024-02-26T10:30:16;98427.34;;;7.23;63.58
76594;BME280;65482;50.240;14.302;2024-02-26T10:32:43;98433.75;;;7.21;63.54
76594;BME280;65482;50.240;14.302;2024-02-26T10:35:09;98440.97;;;7.10;63.93
76594;BME280;65482;50.240;14.302;2024-02-26T10:37:35;98444.56;;;7.17;63.45
76594;BME280;65482;50.240;14.302;2024-02-26T10:40:01;98454.72;;;7.21;63.70
76594;BME280;65482;50.240;14.302;2024-02-26T10:42:27;98444.72;;;7.16;63.56
76594;BME280;65482;50.240;14.302;2024-02-26T10:44:52;98454.41;;;7.15;63.79
76594;BME280;65482;50.240;14.302;2024-02-26T10:47:19;98455.41;;;7.14;64.35
76594;BME280;65482;50.240;14.302;2024-02-26T10:49:46;98451.13;;;7.13;64.27
76594;BME280;65482;50.240;14.302;2024-02-26T10:52:13;98457.03;;;7.15;64.79
76594;BME280;65482;50.240;14.302;2024-02-26T10:54:41;98469.78;;;7.02;64.57
76594;BME280;65482;50.240;14.302;2024-02-26T10:57:11;98460.13;;;7.11;64.48
76594;BME280;65482;50.240;14.302;2024-02-26T10:59:37;98466.69;;;7.07;64.58
76594;BME280;65482;50.240;14.302;2024-02-26T11:02:05;98469.78;;;7.02;65.02
76594;BME280;65482;50.240;14.302;2024-02-26T11:04:33;98466.03;;;7.05;64.88
76594;BME280;65482;50.240;14.302;2024-02-26T11:07:18;98457.00;;;7.24;64.48
76594;BME280;65482;50.240;14.302;2024-02-26T11:09:45;98451.28;;;7.36;63.85
76594;BME280;65482;50.240;14.302;2024-02-26T11:12:17;98452.06;;;7.45;64.27
76594;BME280;65482;50.240;14.302;2024-02-26T11:14:45;98453.22;;;7.51;63.41
76594;BME280;65482;50.240;14.302;2024-02-26T11:17:12;98462.72;;;7.44;64.01
76594;BME280;65482;50.240;14.302;2024-02-26T11:19:41;98447.34;;;7.32;64.28
76594;BME280;65482;50.240;14.302;2024-02-26T11:22:08;98453.88;;;7.45;63.88
76594;BME280;65482;50.240;14.302;2024-02-26T11:24:34;98455.69;;;7.52;63.49
76594;BME280;65482;50.240;14.302;2024-02-26T11:27:02;98453.72;;;7.54;63.95
76594;BME280;65482;50.240;14.302;2024-02-26T11:29:37;98449.94;;;7.57;63.60
76594;BME280;65482;50.240;14.302;2024-02-26T11:32:03;98445.97;;;7.69;63.22
76594;BME280;65482;50.240;14.302;2024-02-26T11:34:29;98449.41;;;7.78;63.02
76594;BME280;65482;50.240;14.302;2024-02-26T11:36:55;98440.81;;;7.92;62.74
76594;BME280;65482;50.240;14.302;2024-02-26T11:39:22;98449.63;;;8.08;62.11
76594;BME280;65482;50.240;14.302;2024-02-26T11:41:48;98453.19;;;8.15;61.87
76594;BME280;65482;50.240;14.302;2024-02-26T11:44:28;98446.13;;;8.24;61.80
76594;BME280;65482;50.240;14.302;2024-02-26T11:46:56;98435.41;;;8.25;61.29
76594;BME280;65482;50.240;14.302;2024-02-26T11:51:54;98440.75;;;8.40;61.25
76594;BME280;65482;50.240;14.302;2024-02-26T11:57:38;98435.19;;;8.43;61.18
76594;BME280;65482;50.240;14.302;2024-02-26T12:00:11;98440.75;;;8.40;61.03
76594;BME280;65482;50.240;14.302;2024-02-26T12:05:19;98425.50;;;8.44;60.63
76594;BME280;65482;50.240;14.302;2024-02-26T12:07:46;98431.44;;;8.38;60.72
76594;BME280;65482;50.240;14.302;2024-02-26T12:10:23;98430.94;;;8.42;61.29
76594;BME280;65482;50.240;14.302;2024-02-26T12:13:15;98429.88;;;8.51;60.88
76594;BME280;65482;50.240;14.302;2024-02-26T12:15:44;98433.41;;;8.67;60.75
76594;BME280;65482;50.240;14.302;2024-02-26T12:18:12;98429.16;;;8.66;60.16
76594;BME280;65482;50.240;14.302;2024-02-26T12:20:41;98425.69;;;8.65;59.85
76594;BME280;65482;50.240;14.302;2024-02-26T12:23:06;98432.19;;;8.78;59.76
76594;BME280;65482;50.240;14.302;2024-02-26T12:25:33;98419.78;;;8.86;59.61
76594;BME280;65482;50.240;14.302;2024-02-26T12:27:59;98424.75;;;9.04;59.19
76594;BME280;65482;50.240;14.302;2024-02-26T12:30:26;98418.66;;;9.04;58.52
76594;BME280;65482;50.240;14.302;2024-02-26T12:32:55;98427.16;;;8.91;59.31
76594;BME280;65482;50.240;14.302;2024-02-26T12:35:23;98429.19;;;8.81;59.58
76594;BME280;65482;50.240;14.302;2024-02-26T12:37:49;98424.25;;;8.86;59.78
76594;BME280;65482;50.240;14.302;2024-02-26T12:40:17;98418.44;;;8.90;59.87
76594;BME280;65482;50.240;14.302;2024-02-26T12:42:42;98421.47;;;8.79;59.91
76594;BME280;65482;50.240;14.302;2024-02-26T12:45:11;98420.84;;;8.77;59.76
76594;BME280;65482;50.240;14.302;2024-02-26T12:47:41;98423.22;;;8.87;59.78
76594;BME280;65482;50.240;14.302;2024-02-26T12:50:09;98424.88;;;8.88;59.66
76594;BME280;65482;50.240;14.302;2024-02-26T12:52:39;98434.06;;;8.92;59.66
76594;BME280;65482;50.240;14.302;2024-02-26T12:55:06;98433.03;;;8.93;59.80
76594;BME280;65482;50.240;14.302;2024-02-26T12:57:38;98428.56;;;9.02;59.56
76594;BME280;65482;50.240;14.302;2024-02-26T13:00:05;98441.97;;;9.07;59.68
76594;BME280;65482;50.240;14.302;2024-02-26T13:02:36;98448.59;;;9.03;60.04
76594;BME280;65482;50.240;14.302;2024-02-26T13:05:04;98456.22;;;8.98;59.39